Hillman, Minnesota
Current Conditions -  °F | °C
As of 2:13 PM on Wednesday 28 Jan 2015 (Local Time) from KLXL Reporting Station
Haze Haze  
Wind Chill: 23°   Ceiling: 600
Heat Index: 30°   Visibility: 3mi
Dew Point: 27°   Wind: 7mph
Humidity: 86%   Direction: 140°SE
Pressure: 29.8"   Gusts: NA
Location:  46°N, 93.89°W
Report Text: KLXL 282013Z AUTO 14006KT 3SM BR OVC006 M01/M03 A2980 RMK AO2
Loading
Personal Weather Stations






























Interactive Weather Map New forecast layout! Learn more

10-Day Weather Forecast

Advertisements
Track Severe Weather on mobile